sensor_id;sensor_type;location;lat;lon;timestamp;P1;durP1;ratioP1;P2;durP2;ratioP2
4808;SDS011;2418;49.930;8.606;2022-08-18T00:01:10;7.88;;;7.40;;
4808;SDS011;2418;49.930;8.606;2022-08-18T00:03:38;9.48;;;8.13;;
4808;SDS011;2418;49.930;8.606;2022-08-18T00:06:05;10.30;;;7.57;;
4808;SDS011;2418;49.930;8.606;2022-08-18T00:08:31;8.52;;;7.90;;
4808;SDS011;2418;49.930;8.606;2022-08-18T00:10:57;8.00;;;7.40;;
4808;SDS011;2418;49.930;8.606;2022-08-18T00:13:23;8.30;;;7.70;;
4808;SDS011;2418;49.930;8.606;2022-08-18T00:15:49;7.40;;;6.90;;
4808;SDS011;2418;49.930;8.606;2022-08-18T00:18:15;8.50;;;7.90;;
4808;SDS011;2418;49.930;8.606;2022-08-18T00:20:41;8.10;;;7.40;;
4808;SDS011;2418;49.930;8.606;2022-08-18T00:23:07;11.98;;;8.75;;
4808;SDS011;2418;49.930;8.606;2022-08-18T00:25:33;8.05;;;7.43;;
4808;SDS011;2418;49.930;8.606;2022-08-18T00:27:59;8.93;;;8.23;;
4808;SDS011;2418;49.930;8.606;2022-08-18T00:30:25;10.00;;;8.90;;
4808;SDS011;2418;49.930;8.606;2022-08-18T00:32:53;18.10;;;9.90;;
4808;SDS011;2418;49.930;8.606;2022-08-18T00:35:20;10.68;;;9.00;;
4808;SDS011;2418;49.930;8.606;2022-08-18T00:37:52;13.95;;;10.55;;
4808;SDS011;2418;49.930;8.606;2022-08-18T00:40:21;11.40;;;9.80;;
4808;SDS011;2418;49.930;8.606;2022-08-18T00:42:49;12.45;;;10.20;;
4808;SDS011;2418;49.930;8.606;2022-08-18T00:45:20;17.38;;;10.45;;
4808;SDS011;2418;49.930;8.606;2022-08-18T00:47:47;14.85;;;10.23;;
4808;SDS011;2418;49.930;8.606;2022-08-18T00:50:14;12.65;;;10.38;;
4808;SDS011;2418;49.930;8.606;2022-08-18T00:52:42;10.30;;;9.20;;
4808;SDS011;2418;49.930;8.606;2022-08-18T00:55:09;11.80;;;10.70;;
4808;SDS011;2418;49.930;8.606;2022-08-18T00:57:35;11.10;;;10.00;;
4808;SDS011;2418;49.930;8.606;2022-08-18T01:00:03;15.60;;;10.40;;
4808;SDS011;2418;49.930;8.606;2022-08-18T01:02:36;10.80;;;9.90;;
4808;SDS011;2418;49.930;8.606;2022-08-18T01:05:09;10.02;;;9.00;;
4808;SDS011;2418;49.930;8.606;2022-08-18T01:07:42;12.20;;;9.77;;
4808;SDS011;2418;49.930;8.606;2022-08-18T01:10:10;10.60;;;9.50;;
4808;SDS011;2418;49.930;8.606;2022-08-18T01:12:40;11.48;;;9.50;;
4808;SDS011;2418;49.930;8.606;2022-08-18T01:15:07;10.70;;;8.55;;
4808;SDS011;2418;49.930;8.606;2022-08-18T01:17:33;13.80;;;8.77;;
4808;SDS011;2418;49.930;8.606;2022-08-18T01:23:18;10.07;;;8.10;;
4808;SDS011;2418;49.930;8.606;2022-08-18T01:25:45;10.50;;;8.90;;
4808;SDS011;2418;49.930;8.606;2022-08-18T01:28:24;8.48;;;7.95;;
4808;SDS011;2418;49.930;8.606;2022-08-18T01:30:52;10.35;;;8.40;;
4808;SDS011;2418;49.930;8.606;2022-08-18T01:33:26;9.90;;;9.00;;
4808;SDS011;2418;49.930;8.606;2022-08-18T01:35:57;8.50;;;7.72;;
4808;SDS011;2418;49.930;8.606;2022-08-18T01:38:23;10.25;;;8.40;;
4808;SDS011;2418;49.930;8.606;2022-08-18T01:40:50;9.25;;;8.45;;
4808;SDS011;2418;49.930;8.606;2022-08-18T01:43:18;9.30;;;8.50;;
4808;SDS011;2418;49.930;8.606;2022-08-18T01:45:44;8.73;;;7.68;;
4808;SDS011;2418;49.930;8.606;2022-08-18T01:48:10;9.35;;;7.80;;
4808;SDS011;2418;49.930;8.606;2022-08-18T01:50:36;9.00;;;8.40;;
4808;SDS011;2418;49.930;8.606;2022-08-18T01:53:04;9.43;;;8.63;;
4808;SDS011;2418;49.930;8.606;2022-08-18T01:55:32;8.85;;;8.15;;
4808;SDS011;2418;49.930;8.606;2022-08-18T01:57:59;9.05;;;8.15;;
4808;SDS011;2418;49.930;8.606;2022-08-18T02:00:25;8.55;;;7.75;;
4808;SDS011;2418;49.930;8.606;2022-08-18T02:02:52;9.48;;;8.68;;
4808;SDS011;2418;49.930;8.606;2022-08-18T02:05:19;8.65;;;8.00;;
4808;SDS011;2418;49.930;8.606;2022-08-18T02:07:52;8.35;;;7.85;;
4808;SDS011;2418;49.930;8.606;2022-08-18T02:10:18;11.48;;;8.50;;
4808;SDS011;2418;49.930;8.606;2022-08-18T02:12:44;8.88;;;8.18;;
4808;SDS011;2418;49.930;8.606;2022-08-18T02:15:10;8.73;;;7.93;;
4808;SDS011;2418;49.930;8.606;2022-08-18T02:17:37;8.63;;;7.93;;
4808;SDS011;2418;49.930;8.606;2022-08-18T02:20:04;8.48;;;7.70;;
4808;SDS011;2418;49.930;8.606;2022-08-18T02:22:30;10.13;;;8.13;;
4808;SDS011;2418;49.930;8.606;2022-08-18T02:24:56;7.70;;;7.00;;
4808;SDS011;2418;49.930;8.606;2022-08-18T02:27:22;8.18;;;7.47;;
4808;SDS011;2418;49.930;8.606;2022-08-18T02:29:48;8.30;;;7.60;;
4808;SDS011;2418;49.930;8.606;2022-08-18T02:32:14;7.90;;;7.20;;
4808;SDS011;2418;49.930;8.606;2022-08-18T02:34:40;7.13;;;6.60;;
4808;SDS011;2418;49.930;8.606;2022-08-18T02:37:07;7.97;;;7.30;;
4808;SDS011;2418;49.930;8.606;2022-08-18T02:39:34;8.40;;;6.50;;
4808;SDS011;2418;49.930;8.606;2022-08-18T02:42:01;8.02;;;7.32;;
4808;SDS011;2418;49.930;8.606;2022-08-18T02:44:27;8.07;;;7.38;;
4808;SDS011;2418;49.930;8.606;2022-08-18T02:46:53;8.43;;;6.68;;
4808;SDS011;2418;49.930;8.606;2022-08-18T02:49:19;6.97;;;6.57;;
4808;SDS011;2418;49.930;8.606;2022-08-18T02:51:45;6.80;;;6.50;;
4808;SDS011;2418;49.930;8.606;2022-08-18T02:54:10;7.50;;;7.00;;
4808;SDS011;2418;49.930;8.606;2022-08-18T02:56:36;7.35;;;6.75;;
4808;SDS011;2418;49.930;8.606;2022-08-18T02:59:04;7.43;;;6.80;;
4808;SDS011;2418;49.930;8.606;2022-08-18T03:01:32;6.30;;;6.00;;
4808;SDS011;2418;49.930;8.606;2022-08-18T03:03:58;7.47;;;6.87;;
4808;SDS011;2418;49.930;8.606;2022-08-18T03:06:25;6.68;;;6.10;;
4808;SDS011;2418;49.930;8.606;2022-08-18T03:08:52;10.45;;;7.20;;
4808;SDS011;2418;49.930;8.606;2022-08-18T03:11:20;7.30;;;6.75;;
4808;SDS011;2418;49.930;8.606;2022-08-18T03:13:47;7.60;;;6.90;;
4808;SDS011;2418;49.930;8.606;2022-08-18T03:16:13;6.88;;;6.28;;
4808;SDS011;2418;49.930;8.606;2022-08-18T03:18:40;7.47;;;6.78;;
4808;SDS011;2418;49.930;8.606;2022-08-18T03:21:28;6.82;;;6.40;;
4808;SDS011;2418;49.930;8.606;2022-08-18T03:23:52;6.43;;;6.13;;
4808;SDS011;2418;49.930;8.606;2022-08-18T03:26:19;7.00;;;6.50;;
4808;SDS011;2418;49.930;8.606;2022-08-18T03:28:47;6.60;;;6.00;;
4808;SDS011;2418;49.930;8.606;2022-08-18T03:31:14;7.50;;;6.80;;
4808;SDS011;2418;49.930;8.606;2022-08-18T03:33:41;6.70;;;6.30;;
4808;SDS011;2418;49.930;8.606;2022-08-18T03:36:08;6.80;;;6.20;;
4808;SDS011;2418;49.930;8.606;2022-08-18T03:38:36;8.00;;;6.13;;
4808;SDS011;2418;49.930;8.606;2022-08-18T03:41:01;7.10;;;6.40;;
4808;SDS011;2418;49.930;8.606;2022-08-18T03:43:27;6.60;;;6.30;;
4808;SDS011;2418;49.930;8.606;2022-08-18T03:45:58;6.60;;;6.10;;
4808;SDS011;2418;49.930;8.606;2022-08-18T03:48:29;7.10;;;6.13;;
4808;SDS011;2418;49.930;8.606;2022-08-18T03:50:55;6.47;;;5.97;;
4808;SDS011;2418;49.930;8.606;2022-08-18T03:53:26;6.10;;;5.80;;
4808;SDS011;2418;49.930;8.606;2022-08-18T03:55:52;6.90;;;6.30;;
4808;SDS011;2418;49.930;8.606;2022-08-18T03:58:18;6.53;;;5.93;;
4808;SDS011;2418;49.930;8.606;2022-08-18T04:00:44;6.93;;;6.32;;
4808;SDS011;2418;49.930;8.606;2022-08-18T04:03:10;7.50;;;6.00;;
4808;SDS011;2418;49.930;8.606;2022-08-18T04:05:38;6.72;;;6.13;;
4808;SDS011;2418;49.930;8.606;2022-08-18T04:08:07;6.87;;;6.37;;
4808;SDS011;2418;49.930;8.606;2022-08-18T04:10:33;6.15;;;5.60;;
4808;SDS011;2418;49.930;8.606;2022-08-18T04:12:59;6.60;;;6.20;;
4808;SDS011;2418;49.930;8.606;2022-08-18T04:15:29;6.05;;;5.75;;
4808;SDS011;2418;49.930;8.606;2022-08-18T04:17:57;7.80;;;7.00;;
4808;SDS011;2418;49.930;8.606;2022-08-18T04:20:23;6.40;;;5.80;;
4808;SDS011;2418;49.930;8.606;2022-08-18T04:22:49;6.80;;;6.40;;
4808;SDS011;2418;49.930;8.606;2022-08-18T04:25:15;6.57;;;6.00;;
4808;SDS011;2418;49.930;8.606;2022-08-18T04:27:41;5.55;;;5.22;;
4808;SDS011;2418;49.930;8.606;2022-08-18T04:30:08;5.97;;;5.78;;
4808;SDS011;2418;49.930;8.606;2022-08-18T04:32:35;7.00;;;6.40;;
4808;SDS011;2418;49.930;8.606;2022-08-18T04:35:01;9.68;;;6.13;;
4808;SDS011;2418;49.930;8.606;2022-08-18T04:37:28;7.03;;;5.80;;
4808;SDS011;2418;49.930;8.606;2022-08-18T04:39:56;6.32;;;6.03;;
4808;SDS011;2418;49.930;8.606;2022-08-18T04:42:23;7.38;;;6.57;;
4808;SDS011;2418;49.930;8.606;2022-08-18T04:44:49;7.00;;;6.50;;
4808;SDS011;2418;49.930;8.606;2022-08-18T04:47:15;6.93;;;6.28;;
4808;SDS011;2418;49.930;8.606;2022-08-18T04:49:41;7.30;;;6.72;;
4808;SDS011;2418;49.930;8.606;2022-08-18T04:52:08;7.00;;;6.40;;
4808;SDS011;2418;49.930;8.606;2022-08-18T04:54:53;6.60;;;6.10;;
4808;SDS011;2418;49.930;8.606;2022-08-18T04:57:19;7.13;;;6.72;;
4808;SDS011;2418;49.930;8.606;2022-08-18T04:59:47;7.00;;;5.85;;
4808;SDS011;2418;49.930;8.606;2022-08-18T05:02:15;7.28;;;6.88;;
4808;SDS011;2418;49.930;8.606;2022-08-18T05:04:42;7.20;;;6.60;;
4808;SDS011;2418;49.930;8.606;2022-08-18T05:07:11;6.60;;;6.20;;
4808;SDS011;2418;49.930;8.606;2022-08-18T05:09:38;7.00;;;6.60;;
4808;SDS011;2418;49.930;8.606;2022-08-18T05:12:06;10.40;;;6.97;;
4808;SDS011;2418;49.930;8.606;2022-08-18T05:14:32;7.32;;;6.82;;
4808;SDS011;2418;49.930;8.606;2022-08-18T05:17:00;8.27;;;7.45;;
4808;SDS011;2418;49.930;8.606;2022-08-18T05:19:26;7.45;;;6.78;;
4808;SDS011;2418;49.930;8.606;2022-08-18T05:21:53;6.78;;;6.28;;
4808;SDS011;2418;49.930;8.606;2022-08-18T05:24:21;7.30;;;6.70;;
4808;SDS011;2418;49.930;8.606;2022-08-18T05:26:49;7.83;;;7.13;;
4808;SDS011;2418;49.930;8.606;2022-08-18T05:29:15;7.32;;;6.90;;
4808;SDS011;2418;49.930;8.606;2022-08-18T05:31:41;8.50;;;8.00;;
4808;SDS011;2418;49.930;8.606;2022-08-18T05:34:07;7.93;;;7.22;;
4808;SDS011;2418;49.930;8.606;2022-08-18T05:39:05;7.40;;;6.80;;
4808;SDS011;2418;49.930;8.606;2022-08-18T05:41:36;7.82;;;7.18;;
4808;SDS011;2418;49.930;8.606;2022-08-18T05:44:03;7.80;;;7.30;;
4808;SDS011;2418;49.930;8.606;2022-08-18T05:46:41;7.77;;;7.07;;
4808;SDS011;2418;49.930;8.606;2022-08-18T05:49:09;9.25;;;6.78;;
4808;SDS011;2418;49.930;8.606;2022-08-18T05:51:38;8.27;;;7.47;;
4808;SDS011;2418;49.930;8.606;2022-08-18T05:54:05;7.63;;;7.20;;
4808;SDS011;2418;49.930;8.606;2022-08-18T05:56:50;8.20;;;6.95;;
4808;SDS011;2418;49.930;8.606;2022-08-18T06:01:48;8.30;;;7.70;;
4808;SDS011;2418;49.930;8.606;2022-08-18T06:06:42;9.20;;;8.30;;
4808;SDS011;2418;49.930;8.606;2022-08-18T06:09:14;8.80;;;8.10;;
4808;SDS011;2418;49.930;8.606;2022-08-18T06:11:42;9.43;;;8.40;;
4808;SDS011;2418;49.930;8.606;2022-08-18T06:14:08;10.60;;;9.10;;
4808;SDS011;2418;49.930;8.606;2022-08-18T06:36:59;10.17;;;9.10;;
4808;SDS011;2418;49.930;8.606;2022-08-18T06:39:46;8.95;;;8.05;;
4808;SDS011;2418;49.930;8.606;2022-08-18T06:42:15;9.50;;;8.60;;
4808;SDS011;2418;49.930;8.606;2022-08-18T06:44:45;10.43;;;9.30;;
4808;SDS011;2418;49.930;8.606;2022-08-18T06:52:39;9.40;;;8.60;;
4808;SDS011;2418;49.930;8.606;2022-08-18T06:55:16;9.32;;;8.43;;
4808;SDS011;2418;49.930;8.606;2022-08-18T06:57:53;8.90;;;8.20;;
4808;SDS011;2418;49.930;8.606;2022-08-18T07:00:20;11.15;;;9.07;;
4808;SDS011;2418;49.930;8.606;2022-08-18T07:02:54;9.00;;;8.30;;
4808;SDS011;2418;49.930;8.606;2022-08-18T07:05:27;9.45;;;8.65;;
4808;SDS011;2418;49.930;8.606;2022-08-18T07:08:02;8.82;;;8.05;;
4808;SDS011;2418;49.930;8.606;2022-08-18T07:10:40;9.13;;;8.43;;
4808;SDS011;2418;49.930;8.606;2022-08-18T07:13:14;9.02;;;8.30;;
4808;SDS011;2418;49.930;8.606;2022-08-18T07:15:40;8.93;;;8.10;;
4808;SDS011;2418;49.930;8.606;2022-08-18T07:18:10;9.02;;;8.10;;
4808;SDS011;2418;49.930;8.606;2022-08-18T07:20:53;8.90;;;8.00;;
4808;SDS011;2418;49.930;8.606;2022-08-18T07:23:22;8.55;;;7.85;;
4808;SDS011;2418;49.930;8.606;2022-08-18T07:25:49;8.90;;;8.23;;
4808;SDS011;2418;49.930;8.606;2022-08-18T07:28:30;8.93;;;8.27;;
4808;SDS011;2418;49.930;8.606;2022-08-18T07:33:41;9.00;;;8.50;;
4808;SDS011;2418;49.930;8.606;2022-08-18T07:36:10;8.80;;;8.20;;
4808;SDS011;2418;49.930;8.606;2022-08-18T07:38:39;8.90;;;8.27;;
4808;SDS011;2418;49.930;8.606;2022-08-18T07:46:33;8.25;;;7.85;;
4808;SDS011;2418;49.930;8.606;2022-08-18T07:49:01;10.40;;;9.40;;
4808;SDS011;2418;49.930;8.606;2022-08-18T07:59:21;10.63;;;8.30;;
4808;SDS011;2418;49.930;8.606;2022-08-18T08:01:53;9.15;;;8.40;;
4808;SDS011;2418;49.930;8.606;2022-08-18T08:07:34;9.80;;;8.90;;
4808;SDS011;2418;49.930;8.606;2022-08-18T08:09:42;10.70;;;9.60;;
4808;SDS011;2418;49.930;8.606;2022-08-18T08:12:23;12.45;;;10.20;;
4808;SDS011;2418;49.930;8.606;2022-08-18T08:15:02;11.88;;;10.68;;
4808;SDS011;2418;49.930;8.606;2022-08-18T08:17:34;11.70;;;9.98;;
4808;SDS011;2418;49.930;8.606;2022-08-18T08:20:16;16.70;;;11.10;;
4808;SDS011;2418;49.930;8.606;2022-08-18T08:33:35;16.83;;;11.88;;
4808;SDS011;2418;49.930;8.606;2022-08-18T08:36:10;15.18;;;13.10;;
4808;SDS011;2418;49.930;8.606;2022-08-18T08:38:42;15.75;;;12.55;;
4808;SDS011;2418;49.930;8.606;2022-08-18T08:41:11;15.65;;;12.68;;
4808;SDS011;2418;49.930;8.606;2022-08-18T08:43:42;17.08;;;12.30;;
4808;SDS011;2418;49.930;8.606;2022-08-18T08:46:11;15.83;;;12.70;;
4808;SDS011;2418;49.930;8.606;2022-08-18T08:48:40;16.20;;;12.98;;
4808;SDS011;2418;49.930;8.606;2022-08-18T08:54:00;13.43;;;12.02;;
4808;SDS011;2418;49.930;8.606;2022-08-18T08:56:30;14.32;;;11.90;;
4808;SDS011;2418;49.930;8.606;2022-08-18T08:58:59;14.35;;;12.10;;
4808;SDS011;2418;49.930;8.606;2022-08-18T09:06:35;15.48;;;11.98;;
4808;SDS011;2418;49.930;8.606;2022-08-18T09:24:56;22.08;;;14.60;;
4808;SDS011;2418;49.930;8.606;2022-08-18T09:27:41;29.65;;;15.10;;
4808;SDS011;2418;49.930;8.606;2022-08-18T09:30:35;19.83;;;15.25;;
4808;SDS011;2418;49.930;8.606;2022-08-18T09:33:03;21.58;;;15.10;;
4808;SDS011;2418;49.930;8.606;2022-08-18T09:35:44;22.15;;;14.70;;
4808;SDS011;2418;49.930;8.606;2022-08-18T09:38:15;22.83;;;15.20;;
4808;SDS011;2418;49.930;8.606;2022-08-18T09:41:11;19.88;;;15.48;;
4808;SDS011;2418;49.930;8.606;2022-08-18T09:43:58;19.02;;;15.35;;
4808;SDS011;2418;49.930;8.606;2022-08-18T09:49:48;23.83;;;16.33;;
4808;SDS011;2418;49.930;8.606;2022-08-18T09:51:59;25.00;;;16.58;;
4808;SDS011;2418;49.930;8.606;2022-08-18T09:57:25;19.92;;;15.95;;
4808;SDS011;2418;49.930;8.606;2022-08-18T10:02:12;23.45;;;16.85;;
4808;SDS011;2418;49.930;8.606;2022-08-18T10:15:42;27.27;;;20.75;;
4808;SDS011;2418;49.930;8.606;2022-08-18T10:18:32;22.67;;;18.92;;
4808;SDS011;2418;49.930;8.606;2022-08-18T10:21:01;23.73;;;20.52;;
4808;SDS011;2418;49.930;8.606;2022-08-18T10:29:03;24.88;;;20.60;;
4808;SDS011;2418;49.930;8.606;2022-08-18T10:31:30;22.63;;;19.60;;
4808;SDS011;2418;49.930;8.606;2022-08-18T10:34:01;26.47;;;21.10;;
4808;SDS011;2418;49.930;8.606;2022-08-18T10:36:38;24.20;;;20.52;;
4808;SDS011;2418;49.930;8.606;2022-08-18T10:39:05;23.37;;;20.60;;
4808;SDS011;2418;49.930;8.606;2022-08-18T10:41:32;23.23;;;20.10;;
4808;SDS011;2418;49.930;8.606;2022-08-18T10:43:59;28.05;;;20.65;;
4808;SDS011;2418;49.930;8.606;2022-08-18T10:46:27;23.08;;;20.30;;
4808;SDS011;2418;49.930;8.606;2022-08-18T10:48:58;25.63;;;19.17;;
4808;SDS011;2418;49.930;8.606;2022-08-18T11:01:56;25.20;;;22.00;;
4808;SDS011;2418;49.930;8.606;2022-08-18T11:04:29;29.45;;;22.88;;
4808;SDS011;2418;49.930;8.606;2022-08-18T11:07:02;26.67;;;22.73;;
4808;SDS011;2418;49.930;8.606;2022-08-18T11:09:29;34.78;;;26.77;;
4808;SDS011;2418;49.930;8.606;2022-08-18T11:11:57;32.60;;;27.63;;
4808;SDS011;2418;49.930;8.606;2022-08-18T11:20:06;28.45;;;24.95;;
4808;SDS011;2418;49.930;8.606;2022-08-18T11:22:34;28.17;;;24.35;;
4808;SDS011;2418;49.930;8.606;2022-08-18T11:25:00;29.55;;;26.30;;
4808;SDS011;2418;49.930;8.606;2022-08-18T11:27:28;30.70;;;26.52;;
4808;SDS011;2418;49.930;8.606;2022-08-18T11:29:57;35.70;;;26.40;;
4808;SDS011;2418;49.930;8.606;2022-08-18T11:37:35;27.98;;;25.08;;
4808;SDS011;2418;49.930;8.606;2022-08-18T11:43:01;25.67;;;23.08;;
4808;SDS011;2418;49.930;8.606;2022-08-18T11:45:32;27.98;;;24.25;;
4808;SDS011;2418;49.930;8.606;2022-08-18T11:47:59;26.42;;;23.63;;
4808;SDS011;2418;49.930;8.606;2022-08-18T11:50:27;25.60;;;21.50;;
4808;SDS011;2418;49.930;8.606;2022-08-18T11:52:54;29.42;;;22.95;;
4808;SDS011;2418;49.930;8.606;2022-08-18T11:55:30;25.15;;;21.80;;
4808;SDS011;2418;49.930;8.606;2022-08-18T11:58:00;24.63;;;21.98;;
4808;SDS011;2418;49.930;8.606;2022-08-18T12:00:35;24.33;;;21.80;;
4808;SDS011;2418;49.930;8.606;2022-08-18T12:03:07;25.27;;;20.88;;
4808;SDS011;2418;49.930;8.606;2022-08-18T12:05:41;22.83;;;20.13;;
4808;SDS011;2418;49.930;8.606;2022-08-18T12:13:37;22.40;;;20.10;;
4808;SDS011;2418;49.930;8.606;2022-08-18T12:16:07;21.60;;;19.40;;
4808;SDS011;2418;49.930;8.606;2022-08-18T12:18:34;23.30;;;19.77;;
4808;SDS011;2418;49.930;8.606;2022-08-18T12:21:00;23.23;;;18.67;;
4808;SDS011;2418;49.930;8.606;2022-08-18T12:23:26;26.23;;;19.80;;
4808;SDS011;2418;49.930;8.606;2022-08-18T12:25:52;21.53;;;19.33;;
4808;SDS011;2418;49.930;8.606;2022-08-18T12:28:19;21.75;;;18.80;;
4808;SDS011;2418;49.930;8.606;2022-08-18T12:30:45;21.85;;;19.70;;
4808;SDS011;2418;49.930;8.606;2022-08-18T12:33:11;27.20;;;18.58;;
4808;SDS011;2418;49.930;8.606;2022-08-18T12:35:37;21.38;;;19.05;;
4808;SDS011;2418;49.930;8.606;2022-08-18T12:38:03;21.75;;;19.45;;
4808;SDS011;2418;49.930;8.606;2022-08-18T12:40:29;20.13;;;18.02;;
4808;SDS011;2418;49.930;8.606;2022-08-18T12:42:55;20.80;;;16.80;;
4808;SDS011;2418;49.930;8.606;2022-08-18T12:45:21;19.65;;;17.35;;
4808;SDS011;2418;49.930;8.606;2022-08-18T12:47:47;18.70;;;16.90;;
4808;SDS011;2418;49.930;8.606;2022-08-18T12:50:13;16.80;;;15.18;;
4808;SDS011;2418;49.930;8.606;2022-08-18T12:52:40;15.68;;;14.13;;
4808;SDS011;2418;49.930;8.606;2022-08-18T12:55:06;18.42;;;16.63;;
4808;SDS011;2418;49.930;8.606;2022-08-18T12:57:33;20.08;;;18.00;;
4808;SDS011;2418;49.930;8.606;2022-08-18T12:59:59;17.70;;;15.50;;
4808;SDS011;2418;49.930;8.606;2022-08-18T13:02:25;16.42;;;14.80;;
4808;SDS011;2418;49.930;8.606;2022-08-18T13:04:51;20.55;;;15.73;;
4808;SDS011;2418;49.930;8.606;2022-08-18T13:07:17;17.83;;;16.13;;
4808;SDS011;2418;49.930;8.606;2022-08-18T13:09:43;19.58;;;16.35;;
4808;SDS011;2418;49.930;8.606;2022-08-18T13:12:10;18.57;;;16.60;;
4808;SDS011;2418;49.930;8.606;2022-08-18T13:14:36;15.13;;;13.82;;
4808;SDS011;2418;49.930;8.606;2022-08-18T13:17:02;15.10;;;13.60;;
4808;SDS011;2418;49.930;8.606;2022-08-18T13:19:28;14.68;;;13.35;;
4808;SDS011;2418;49.930;8.606;2022-08-18T13:21:55;17.85;;;14.93;;
4808;SDS011;2418;49.930;8.606;2022-08-18T13:24:21;17.10;;;15.20;;
4808;SDS011;2418;49.930;8.606;2022-08-18T13:26:47;15.75;;;14.15;;
4808;SDS011;2418;49.930;8.606;2022-08-18T13:29:14;14.90;;;12.70;;
4808;SDS011;2418;49.930;8.606;2022-08-18T13:31:41;16.38;;;14.95;;
4808;SDS011;2418;49.930;8.606;2022-08-18T13:34:07;16.20;;;14.70;;
4808;SDS011;2418;49.930;8.606;2022-08-18T13:36:33;15.95;;;14.35;;
4808;SDS011;2418;49.930;8.606;2022-08-18T13:39:09;19.80;;;15.20;;
4808;SDS011;2418;49.930;8.606;2022-08-18T13:41:35;15.40;;;13.80;;
4808;SDS011;2418;49.930;8.606;2022-08-18T13:44:01;14.20;;;12.82;;
4808;SDS011;2418;49.930;8.606;2022-08-18T13:46:27;13.80;;;12.50;;
4808;SDS011;2418;49.930;8.606;2022-08-18T13:48:53;13.35;;;11.95;;
4808;SDS011;2418;49.930;8.606;2022-08-18T13:51:22;13.60;;;12.30;;
4808;SDS011;2418;49.930;8.606;2022-08-18T13:53:48;12.60;;;11.40;;
4808;SDS011;2418;49.930;8.606;2022-08-18T13:56:14;17.27;;;13.85;;
4808;SDS011;2418;49.930;8.606;2022-08-18T13:58:41;14.07;;;12.98;;
4808;SDS011;2418;49.930;8.606;2022-08-18T14:01:07;13.85;;;12.40;;
4808;SDS011;2418;49.930;8.606;2022-08-18T14:03:35;12.82;;;11.93;;
4808;SDS011;2418;49.930;8.606;2022-08-18T14:06:01;14.10;;;12.98;;
4808;SDS011;2418;49.930;8.606;2022-08-18T14:08:28;13.40;;;12.30;;
4808;SDS011;2418;49.930;8.606;2022-08-18T14:10:55;13.77;;;12.40;;
4808;SDS011;2418;49.930;8.606;2022-08-18T14:13:22;13.43;;;12.13;;
4808;SDS011;2418;49.930;8.606;2022-08-18T14:15:49;12.98;;;11.98;;
4808;SDS011;2418;49.930;8.606;2022-08-18T14:18:15;13.48;;;12.02;;
4808;SDS011;2418;49.930;8.606;2022-08-18T14:20:41;12.65;;;11.45;;
4808;SDS011;2418;49.930;8.606;2022-08-18T14:23:26;13.95;;;12.82;;
4808;SDS011;2418;49.930;8.606;2022-08-18T14:26:11;17.45;;;13.90;;
4808;SDS011;2418;49.930;8.606;2022-08-18T14:28:56;15.40;;;13.00;;
4808;SDS011;2418;49.930;8.606;2022-08-18T14:31:22;12.65;;;11.60;;
4808;SDS011;2418;49.930;8.606;2022-08-18T14:33:48;14.00;;;12.80;;
4808;SDS011;2418;49.930;8.606;2022-08-18T14:36:14;12.00;;;11.00;;
4808;SDS011;2418;49.930;8.606;2022-08-18T14:38:41;10.80;;;10.00;;
4808;SDS011;2418;49.930;8.606;2022-08-18T14:41:07;10.07;;;9.13;;
4808;SDS011;2418;49.930;8.606;2022-08-18T14:43:34;11.50;;;10.23;;
4808;SDS011;2418;49.930;8.606;2022-08-18T14:46:01;11.32;;;10.32;;
4808;SDS011;2418;49.930;8.606;2022-08-18T14:48:27;11.00;;;9.90;;
4808;SDS011;2418;49.930;8.606;2022-08-18T14:50:54;10.47;;;9.67;;
4808;SDS011;2418;49.930;8.606;2022-08-18T14:53:24;8.90;;;8.40;;
4808;SDS011;2418;49.930;8.606;2022-08-18T14:55:51;9.00;;;8.20;;
4808;SDS011;2418;49.930;8.606;2022-08-18T14:58:18;9.60;;;8.90;;
4808;SDS011;2418;49.930;8.606;2022-08-18T15:00:44;9.23;;;8.63;;
4808;SDS011;2418;49.930;8.606;2022-08-18T15:03:10;9.65;;;8.95;;
4808;SDS011;2418;49.930;8.606;2022-08-18T15:05:36;9.93;;;9.18;;
4808;SDS011;2418;49.930;8.606;2022-08-18T15:08:02;9.20;;;8.60;;
4808;SDS011;2418;49.930;8.606;2022-08-18T15:10:28;9.53;;;8.73;;
4808;SDS011;2418;49.930;8.606;2022-08-18T15:12:54;8.40;;;8.00;;
4808;SDS011;2418;49.930;8.606;2022-08-18T15:15:22;8.77;;;7.85;;
4808;SDS011;2418;49.930;8.606;2022-08-18T15:17:49;8.27;;;7.78;;
4808;SDS011;2418;49.930;8.606;2022-08-18T15:20:15;8.13;;;7.50;;
4808;SDS011;2418;49.930;8.606;2022-08-18T15:22:43;8.48;;;7.72;;
4808;SDS011;2418;49.930;8.606;2022-08-18T15:25:28;10.65;;;7.75;;
4808;SDS011;2418;49.930;8.606;2022-08-18T15:28:12;6.97;;;6.60;;
4808;SDS011;2418;49.930;8.606;2022-08-18T15:30:38;6.43;;;6.03;;
4808;SDS011;2418;49.930;8.606;2022-08-18T15:33:06;7.15;;;6.65;;
4808;SDS011;2418;49.930;8.606;2022-08-18T15:35:33;7.60;;;7.10;;
4808;SDS011;2418;49.930;8.606;2022-08-18T15:37:59;7.70;;;7.20;;
4808;SDS011;2418;49.930;8.606;2022-08-18T15:40:25;9.50;;;7.10;;
4808;SDS011;2418;49.930;8.606;2022-08-18T15:42:53;7.30;;;6.70;;
4808;SDS011;2418;49.930;8.606;2022-08-18T15:45:26;6.90;;;6.60;;
4808;SDS011;2418;49.930;8.606;2022-08-18T15:47:52;9.52;;;7.18;;
4808;SDS011;2418;49.930;8.606;2022-08-18T15:50:19;7.88;;;7.18;;
4808;SDS011;2418;49.930;8.606;2022-08-18T15:52:50;7.32;;;6.93;;
4808;SDS011;2418;49.930;8.606;2022-08-18T15:55:17;7.25;;;6.85;;
4808;SDS011;2418;49.930;8.606;2022-08-18T15:57:44;7.90;;;7.40;;
4808;SDS011;2418;49.930;8.606;2022-08-18T16:00:11;8.43;;;7.72;;
4808;SDS011;2418;49.930;8.606;2022-08-18T16:02:40;9.63;;;8.75;;
4808;SDS011;2418;49.930;8.606;2022-08-18T16:05:06;9.35;;;8.00;;
4808;SDS011;2418;49.930;8.606;2022-08-18T16:07:32;10.27;;;8.50;;
4808;SDS011;2418;49.930;8.606;2022-08-18T16:09:59;8.15;;;7.53;;
4808;SDS011;2418;49.930;8.606;2022-08-18T16:12:25;8.80;;;8.10;;
4808;SDS011;2418;49.930;8.606;2022-08-18T16:14:51;8.30;;;7.40;;
4808;SDS011;2418;49.930;8.606;2022-08-18T16:17:18;9.35;;;8.50;;
4808;SDS011;2418;49.930;8.606;2022-08-18T16:19:47;8.00;;;7.50;;
4808;SDS011;2418;49.930;8.606;2022-08-18T16:22:13;8.45;;;7.85;;
4808;SDS011;2418;49.930;8.606;2022-08-18T16:24:39;8.20;;;7.82;;
4808;SDS011;2418;49.930;8.606;2022-08-18T16:27:06;10.40;;;9.60;;
4808;SDS011;2418;49.930;8.606;2022-08-18T16:29:33;12.60;;;11.30;;
4808;SDS011;2418;49.930;8.606;2022-08-18T16:31:59;13.10;;;11.87;;
4808;SDS011;2418;49.930;8.606;2022-08-18T16:34:25;14.32;;;13.10;;
4808;SDS011;2418;49.930;8.606;2022-08-18T16:36:52;15.47;;;13.97;;
4808;SDS011;2418;49.930;8.606;2022-08-18T16:39:18;16.67;;;15.07;;
4808;SDS011;2418;49.930;8.606;2022-08-18T16:41:44;16.30;;;14.70;;
4808;SDS011;2418;49.930;8.606;2022-08-18T16:44:10;15.02;;;13.73;;
4808;SDS011;2418;49.930;8.606;2022-08-18T16:46:40;15.55;;;14.00;;
4808;SDS011;2418;49.930;8.606;2022-08-18T16:49:07;15.60;;;13.70;;
4808;SDS011;2418;49.930;8.606;2022-08-18T16:51:33;16.42;;;14.02;;
4808;SDS011;2418;49.930;8.606;2022-08-18T16:53:59;16.53;;;14.93;;
4808;SDS011;2418;49.930;8.606;2022-08-18T16:56:27;16.15;;;14.65;;
4808;SDS011;2418;49.930;8.606;2022-08-18T16:58:53;21.38;;;15.45;;
4808;SDS011;2418;49.930;8.606;2022-08-18T17:01:38;16.00;;;13.95;;
4808;SDS011;2418;49.930;8.606;2022-08-18T17:04:24;16.20;;;14.57;;
4808;SDS011;2418;49.930;8.606;2022-08-18T17:06:52;16.90;;;15.27;;
4808;SDS011;2418;49.930;8.606;2022-08-18T17:09:18;19.25;;;15.23;;
4808;SDS011;2418;49.930;8.606;2022-08-18T17:11:45;16.90;;;15.25;;
4808;SDS011;2418;49.930;8.606;2022-08-18T17:14:11;17.15;;;15.35;;
4808;SDS011;2418;49.930;8.606;2022-08-18T17:16:37;18.00;;;16.10;;
4808;SDS011;2418;49.930;8.606;2022-08-18T17:19:04;16.77;;;15.02;;
4808;SDS011;2418;49.930;8.606;2022-08-18T17:21:30;18.90;;;15.15;;
4808;SDS011;2418;49.930;8.606;2022-08-18T17:23:57;19.48;;;15.13;;
4808;SDS011;2418;49.930;8.606;2022-08-18T17:26:28;19.77;;;15.52;;
4808;SDS011;2418;49.930;8.606;2022-08-18T17:29:02;18.40;;;16.35;;
4808;SDS011;2418;49.930;8.606;2022-08-18T17:31:30;19.20;;;17.13;;
4808;SDS011;2418;49.930;8.606;2022-08-18T17:34:00;19.20;;;16.80;;
4808;SDS011;2418;49.930;8.606;2022-08-18T17:36:31;21.42;;;18.17;;